createdAt,value
2023-05-07T00:00:23.269Z,8.43
2023-05-07T00:02:50.050Z,7.23
2023-05-07T00:05:17.105Z,7.33
2023-05-07T00:07:44.209Z,7.70
2023-05-07T00:10:11.890Z,6.87
2023-05-07T00:12:38.906Z,7.07
2023-05-07T00:15:07.111Z,8.40
2023-05-07T00:17:35.173Z,10.10
2023-05-07T00:20:02.036Z,8.87
2023-05-07T00:22:31.297Z,6.97
2023-05-07T00:24:58.259Z,7.73
2023-05-07T00:27:25.976Z,7.33
2023-05-07T00:29:52.825Z,9.90
2023-05-07T00:32:19.547Z,7.23
2023-05-07T00:34:46.268Z,7.03
2023-05-07T00:37:13.258Z,9.37
2023-05-07T00:39:40.034Z,9.07
2023-05-07T00:42:06.882Z,5.63
2023-05-07T00:44:34.174Z,8.47
2023-05-07T00:47:02.681Z,8.97
2023-05-07T00:49:36.825Z,8.37
2023-05-07T00:52:03.691Z,6.33
2023-05-07T00:54:31.155Z,5.70
2023-05-07T00:56:57.833Z,6.67
2023-05-07T00:59:24.802Z,6.67
2023-05-07T01:01:51.770Z,7.70
2023-05-07T01:04:18.580Z,8.97
2023-05-07T01:06:46.393Z,5.63
2023-05-07T01:09:14.189Z,5.57
2023-05-07T01:11:42.000Z,6.83
2023-05-07T01:14:11.020Z,7.00
2023-05-07T01:16:38.322Z,5.17
2023-05-07T01:19:05.286Z,6.43
2023-05-07T01:21:33.836Z,6.33
2023-05-07T01:24:00.810Z,5.77
2023-05-07T01:26:28.800Z,5.30
2023-05-07T01:28:55.646Z,7.30
2023-05-07T01:31:22.996Z,8.20
2023-05-07T01:33:50.014Z,6.77
2023-05-07T01:36:18.610Z,5.53
2023-05-07T01:38:45.992Z,6.67
2023-05-07T01:41:14.301Z,5.67
2023-05-07T01:43:42.481Z,6.83
2023-05-07T01:46:11.259Z,5.90
2023-05-07T01:48:38.571Z,7.03
2023-05-07T01:51:05.605Z,8.57
2023-05-07T01:53:37.143Z,9.40
2023-05-07T01:56:04.030Z,6.40
2023-05-07T01:58:31.462Z,8.33
2023-05-07T02:00:58.230Z,7.37
2023-05-07T02:03:25.090Z,10.33
2023-05-07T02:05:59.402Z,9.57
2023-05-07T02:08:33.536Z,7.30
2023-05-07T02:11:00.408Z,7.07
2023-05-07T02:13:29.831Z,7.70
2023-05-07T02:15:56.917Z,6.87
2023-05-07T02:18:24.890Z,8.17
2023-05-07T02:20:51.743Z,9.30
2023-05-07T02:23:18.455Z,8.70
2023-05-07T02:25:45.669Z,9.87
2023-05-07T02:28:12.715Z,7.37
2023-05-07T02:30:49.488Z,11.80
2023-05-07T02:33:17.146Z,9.73
2023-05-07T02:35:43.964Z,9.83
2023-05-07T02:38:13.260Z,8.77
2023-05-07T02:40:41.306Z,10.57
2023-05-07T02:43:08.509Z,13.93
2023-05-07T02:45:36.222Z,7.43
2023-05-07T02:48:04.677Z,8.57
2023-05-07T02:50:31.516Z,8.13
2023-05-07T02:52:58.185Z,8.70
2023-05-07T02:55:24.876Z,12.00
2023-05-07T02:57:51.608Z,9.57
2023-05-07T03:00:19.719Z,8.07
2023-05-07T03:02:54.475Z,9.53
2023-05-07T03:05:21.470Z,9.83
2023-05-07T03:07:48.739Z,9.17
2023-05-07T03:10:16.186Z,8.53
2023-05-07T03:12:42.960Z,9.60
2023-05-07T03:15:15.368Z,7.30
2023-05-07T03:17:42.220Z,9.27
2023-05-07T03:20:11.256Z,14.10
2023-05-07T03:22:38.880Z,16.00
2023-05-07T03:25:06.107Z,16.93
2023-05-07T03:27:32.827Z,18.43
2023-05-07T03:29:59.721Z,19.23
2023-05-07T03:32:26.637Z,19.17
2023-05-07T03:34:53.717Z,20.43
2023-05-07T03:37:22.791Z,18.40
2023-05-07T03:39:49.925Z,18.70
2023-05-07T03:42:17.048Z,17.17
2023-05-07T03:44:43.857Z,22.47
2023-05-07T03:47:11.432Z,24.90
2023-05-07T03:49:39.503Z,19.90
2023-05-07T03:52:06.899Z,21.47
2023-05-07T03:54:34.043Z,21.20
2023-05-07T03:57:01.072Z,21.93
2023-05-07T03:59:28.094Z,19.53
2023-05-07T04:01:55.497Z,20.37
2023-05-07T04:04:24.812Z,20.50
2023-05-07T04:06:51.623Z,14.43
2023-05-07T04:09:18.720Z,24.47
2023-05-07T04:11:47.652Z,20.93
2023-05-07T04:14:15.117Z,19.57
2023-05-07T04:16:41.999Z,19.30
2023-05-07T04:19:09.361Z,17.43
2023-05-07T04:21:37.005Z,18.27
2023-05-07T04:24:04.588Z,16.00
2023-05-07T04:26:31.325Z,17.17
2023-05-07T04:29:00.780Z,15.43
2023-05-07T04:31:33.069Z,15.20
2023-05-07T04:34:00.059Z,13.47
2023-05-07T04:36:29.017Z,14.33
2023-05-07T04:39:03.743Z,12.97
2023-05-07T04:41:30.494Z,9.10
2023-05-07T04:44:00.099Z,9.27
2023-05-07T04:46:30.093Z,15.47
2023-05-07T04:48:58.346Z,11.57
2023-05-07T04:51:25.158Z,9.53
2023-05-07T04:53:51.961Z,7.63
2023-05-07T04:56:18.771Z,8.33
2023-05-07T04:58:47.297Z,9.37
2023-05-07T05:01:16.222Z,10.27
2023-05-07T05:03:43.104Z,9.33
2023-05-07T05:06:10.173Z,10.50
2023-05-07T05:08:37.361Z,8.20
2023-05-07T05:11:04.830Z,7.23
2023-05-07T05:13:34.131Z,6.87
2023-05-07T05:16:05.180Z,11.50
2023-05-07T05:18:32.820Z,7.70
2023-05-07T05:20:59.550Z,7.67
2023-05-07T05:23:26.728Z,7.17
2023-05-07T05:25:57.605Z,7.00
2023-05-07T05:28:26.943Z,6.00
2023-05-07T05:30:53.794Z,6.93
2023-05-07T05:33:20.909Z,6.00
2023-05-07T05:35:47.662Z,7.30
2023-05-07T05:38:14.488Z,6.00
2023-05-07T05:40:41.892Z,4.70
2023-05-07T05:43:08.907Z,6.07
2023-05-07T05:45:38.263Z,5.03
2023-05-07T05:48:06.532Z,4.60
2023-05-07T05:50:33.968Z,4.70
2023-05-07T05:53:01.307Z,5.43
2023-05-07T05:55:30.128Z,5.13
2023-05-07T05:57:57.813Z,5.00
2023-05-07T06:00:25.044Z,6.00
2023-05-07T06:02:59.553Z,5.40
2023-05-07T06:05:26.982Z,8.03
2023-05-07T06:07:56.055Z,4.10
2023-05-07T06:10:23.029Z,5.80
2023-05-07T06:12:49.871Z,5.50
2023-05-07T06:15:17.519Z,4.40
2023-05-07T06:17:45.002Z,4.00
2023-05-07T06:20:12.464Z,4.43
2023-05-07T06:22:40.481Z,5.70
2023-05-07T06:25:08.709Z,3.93
2023-05-07T06:27:35.574Z,5.00
2023-05-07T06:30:02.419Z,4.30
2023-05-07T06:32:29.485Z,3.87
2023-05-07T06:34:56.883Z,4.63
2023-05-07T06:37:23.843Z,5.83
2023-05-07T06:39:54.876Z,3.83
2023-05-07T06:42:21.617Z,4.73
2023-05-07T06:44:49.974Z,4.33
2023-05-07T06:47:18.287Z,4.93
2023-05-07T06:49:49.555Z,4.90
2023-05-07T06:52:18.472Z,5.17
2023-05-07T06:54:46.991Z,6.43
2023-05-07T06:57:17.213Z,4.60
2023-05-07T06:59:44.002Z,5.50
2023-05-07T07:02:11.139Z,3.60
2023-05-07T07:04:39.709Z,3.63
2023-05-07T07:07:09.308Z,4.27
2023-05-07T07:09:36.522Z,4.87
2023-05-07T07:12:05.133Z,4.07
2023-05-07T07:14:32.562Z,10.40
2023-05-07T07:16:59.395Z,5.63
2023-05-07T07:19:26.901Z,4.03
2023-05-07T07:21:55.566Z,5.03
2023-05-07T07:24:22.673Z,3.67
2023-05-07T07:26:53.579Z,3.17
2023-05-07T07:29:21.738Z,3.80
2023-05-07T07:31:49.740Z,4.63
2023-05-07T07:34:17.025Z,4.30
2023-05-07T07:36:46.686Z,4.90
2023-05-07T07:39:17.167Z,5.33
2023-05-07T07:41:45.267Z,5.43
2023-05-07T07:44:15.985Z,4.73
2023-05-07T07:46:46.067Z,4.77
2023-05-07T07:49:12.831Z,5.13
2023-05-07T07:51:39.934Z,8.73
2023-05-07T07:54:07.238Z,4.67
2023-05-07T07:56:35.710Z,7.33
2023-05-07T07:59:04.545Z,5.73
2023-05-07T08:01:32.634Z,5.50
2023-05-07T08:04:00.623Z,7.00
2023-05-07T08:06:29.473Z,4.57
2023-05-07T08:08:56.682Z,4.57
2023-05-07T08:11:23.727Z,5.53
2023-05-07T08:13:52.067Z,4.67
2023-05-07T08:16:19.310Z,3.70
2023-05-07T08:18:46.594Z,4.13
2023-05-07T08:21:13.476Z,3.43
2023-05-07T08:23:40.339Z,3.37
2023-05-07T08:26:08.991Z,3.67
2023-05-07T08:28:36.871Z,3.27
2023-05-07T08:31:03.744Z,3.27
2023-05-07T08:33:35.135Z,2.93
2023-05-07T08:36:01.862Z,3.07
2023-05-07T08:38:28.953Z,5.10
2023-05-07T08:40:55.854Z,2.90
2023-05-07T08:43:22.756Z,6.03
2023-05-07T08:45:50.644Z,5.50
2023-05-07T08:48:22.134Z,3.87
2023-05-07T08:50:58.940Z,3.93
2023-05-07T08:53:26.885Z,4.17
2023-05-07T08:55:54.757Z,4.73
2023-05-07T08:58:21.574Z,4.87
2023-05-07T09:00:49.297Z,4.60
2023-05-07T09:03:17.410Z,3.93
2023-05-07T09:05:47.876Z,4.20
2023-05-07T09:08:17.550Z,2.27
2023-05-07T09:10:46.494Z,4.40
2023-05-07T09:13:15.895Z,3.50
2023-05-07T09:15:43.479Z,2.23
2023-05-07T09:18:10.572Z,2.50
2023-05-07T09:20:39.764Z,4.03
2023-05-07T09:23:09.074Z,2.77
2023-05-07T09:25:37.233Z,5.17
2023-05-07T09:28:11.768Z,2.87
2023-05-07T09:30:39.105Z,3.37
2023-05-07T09:33:08.823Z,2.53
2023-05-07T09:35:39.231Z,3.10
2023-05-07T09:38:10.872Z,2.07
2023-05-07T09:40:38.043Z,2.43
2023-05-07T09:43:10.431Z,3.83
2023-05-07T09:45:38.128Z,2.10
2023-05-07T09:48:06.657Z,2.83
2023-05-07T09:50:37.489Z,2.53
2023-05-07T09:53:04.956Z,4.07
2023-05-07T09:55:32.126Z,2.20
2023-05-07T09:57:59.917Z,4.13
2023-05-07T10:00:28.905Z,4.20
2023-05-07T10:03:04.799Z,3.37
2023-05-07T10:05:41.365Z,3.13
2023-05-07T10:08:10.542Z,4.33
2023-05-07T10:10:39.086Z,2.50
2023-05-07T10:13:12.000Z,4.77
2023-05-07T10:15:42.504Z,2.73
2023-05-07T10:18:09.355Z,4.63
2023-05-07T10:20:37.626Z,5.23
2023-05-07T10:23:07.196Z,2.57
2023-05-07T10:25:42.327Z,2.37
2023-05-07T10:28:17.446Z,3.50
2023-05-07T10:30:55.421Z,2.83
2023-05-07T10:33:27.691Z,3.57
2023-05-07T10:35:58.603Z,3.03
2023-05-07T10:38:26.639Z,4.53
2023-05-07T10:40:53.936Z,3.53
2023-05-07T10:43:20.803Z,1.77
2023-05-07T10:46:16.421Z,2.43
2023-05-07T10:49:04.168Z,2.67
2023-05-07T10:52:14.752Z,3.63
2023-05-07T10:54:47.348Z,2.70
2023-05-07T10:57:34.328Z,2.93
2023-05-07T11:00:35.523Z,3.40
2023-05-07T11:03:08.771Z,3.27
2023-05-07T11:06:10.240Z,3.97
2023-05-07T11:08:53.278Z,6.77
2023-05-07T11:11:41.675Z,3.87
2023-05-07T11:14:14.506Z,2.90
2023-05-07T11:16:48.204Z,3.60
2023-05-07T11:19:41.167Z,3.73
2023-05-07T11:22:27.863Z,6.50
2023-05-07T11:25:04.670Z,3.77
2023-05-07T11:27:31.880Z,3.50
2023-05-07T11:29:59.002Z,3.93
2023-05-07T11:32:26.465Z,4.37
2023-05-07T11:34:55.928Z,4.20
2023-05-07T11:37:24.123Z,3.50
2023-05-07T11:40:08.897Z,3.37
2023-05-07T11:42:39.877Z,2.83
2023-05-07T11:45:10.578Z,3.23
2023-05-07T11:47:37.698Z,2.93
2023-05-07T11:50:06.892Z,2.93
2023-05-07T11:52:33.958Z,4.17
2023-05-07T11:55:01.361Z,2.47
2023-05-07T11:57:28.581Z,4.17
2023-05-07T11:59:55.739Z,2.60
2023-05-07T12:02:22.480Z,2.40
2023-05-07T12:04:49.417Z,2.97
2023-05-07T12:07:16.817Z,4.57
2023-05-07T12:09:43.869Z,3.33
2023-05-07T12:12:10.736Z,3.50
2023-05-07T12:14:41.610Z,3.47
2023-05-07T12:17:09.122Z,3.57
2023-05-07T12:19:39.755Z,3.77
2023-05-07T12:22:08.402Z,2.93
2023-05-07T12:24:45.174Z,2.53
2023-05-07T12:27:12.092Z,4.07
2023-05-07T12:29:41.183Z,4.67
2023-05-07T12:32:08.282Z,2.17
2023-05-07T12:34:35.106Z,2.70
2023-05-07T12:37:04.961Z,3.40
2023-05-07T12:39:33.490Z,2.27
2023-05-07T12:42:00.757Z,3.10
2023-05-07T12:44:31.704Z,3.40
2023-05-07T12:46:58.721Z,4.10
2023-05-07T12:49:26.583Z,4.43
2023-05-07T12:51:54.429Z,5.83
2023-05-07T12:54:31.543Z,4.83
2023-05-07T12:57:05.588Z,4.80
2023-05-07T12:59:42.041Z,8.30
2023-05-07T13:02:09.214Z,7.70
2023-05-07T13:04:37.536Z,7.73
2023-05-07T13:07:04.379Z,6.33
2023-05-07T13:09:32.064Z,8.37
2023-05-07T13:12:01.231Z,9.90
2023-05-07T13:14:27.963Z,13.17
2023-05-07T13:16:54.687Z,6.33
2023-05-07T13:19:21.370Z,6.93
2023-05-07T13:21:48.063Z,6.47
2023-05-07T13:24:14.772Z,8.00
2023-05-07T13:26:45.697Z,4.70
2023-05-07T13:29:13.467Z,4.80
2023-05-07T13:31:44.003Z,6.30
2023-05-07T13:34:11.038Z,5.07
2023-05-07T13:36:40.978Z,4.33
2023-05-07T13:39:07.829Z,4.17
2023-05-07T13:41:34.657Z,5.10
2023-05-07T13:44:01.436Z,5.53
2023-05-07T13:46:28.468Z,5.57
2023-05-07T13:48:55.318Z,5.13
2023-05-07T13:51:22.644Z,3.30
2023-05-07T13:53:49.750Z,4.00
2023-05-07T13:56:17.070Z,6.97
2023-05-07T13:58:56.090Z,4.27
2023-05-07T14:01:26.116Z,4.20
2023-05-07T14:03:52.973Z,3.67
2023-05-07T14:06:19.925Z,4.47
2023-05-07T14:08:46.712Z,3.23
2023-05-07T14:11:13.440Z,4.43
2023-05-07T14:13:40.155Z,4.10
2023-05-07T14:16:07.125Z,3.40
2023-05-07T14:18:35.593Z,3.27
2023-05-07T14:21:02.266Z,3.03
2023-05-07T14:23:29.276Z,2.93
2023-05-07T14:25:57.398Z,2.50
2023-05-07T14:28:24.773Z,2.67
2023-05-07T14:30:51.653Z,3.17
2023-05-07T14:33:18.528Z,2.63
2023-05-07T14:35:49.892Z,2.90
2023-05-07T14:38:16.887Z,3.07
2023-05-07T14:40:43.676Z,3.43
2023-05-07T14:43:10.602Z,3.73
2023-05-07T14:45:37.370Z,3.67
2023-05-07T14:48:04.710Z,2.90
2023-05-07T14:50:31.491Z,3.93
2023-05-07T14:52:58.316Z,3.20
2023-05-07T14:55:24.998Z,4.60
2023-05-07T14:57:51.752Z,5.60
2023-05-07T15:00:19.098Z,4.03
2023-05-07T15:02:45.886Z,5.30
2023-05-07T15:05:13.177Z,4.47
2023-05-07T15:07:40.054Z,3.47
2023-05-07T15:10:07.238Z,5.03
2023-05-07T15:12:34.030Z,4.77
2023-05-07T15:15:00.787Z,4.60
2023-05-07T15:17:27.567Z,3.20
2023-05-07T15:19:54.993Z,3.93
2023-05-07T15:22:22.787Z,6.47
2023-05-07T15:24:49.668Z,3.53
2023-05-07T15:27:18.250Z,2.70
2023-05-07T15:29:44.965Z,3.80
2023-05-07T15:32:11.798Z,5.43
2023-05-07T15:34:38.623Z,3.77
2023-05-07T15:37:05.344Z,3.10
2023-05-07T15:39:32.289Z,4.43
2023-05-07T15:41:59.155Z,3.53
2023-05-07T15:44:29.633Z,5.47
2023-05-07T15:46:56.828Z,3.20
2023-05-07T15:49:23.706Z,3.63
2023-05-07T15:51:51.981Z,3.23
2023-05-07T15:54:21.162Z,3.93
2023-05-07T15:56:48.213Z,5.23
2023-05-07T15:59:16.671Z,3.53
2023-05-07T16:01:43.896Z,4.40
2023-05-07T16:04:11.201Z,3.53
2023-05-07T16:06:37.941Z,5.50
2023-05-07T16:09:04.719Z,4.17
2023-05-07T16:11:31.495Z,4.93
2023-05-07T16:14:00.935Z,3.33
2023-05-07T16:16:30.269Z,5.53
2023-05-07T16:18:57.618Z,6.47
2023-05-07T16:21:24.504Z,3.83
2023-05-07T16:23:51.788Z,5.00
2023-05-07T16:26:18.894Z,3.90
2023-05-07T16:28:45.668Z,4.87
2023-05-07T16:31:12.474Z,7.50
2023-05-07T16:33:39.323Z,4.47
2023-05-07T16:36:06.660Z,4.23
2023-05-07T16:38:34.793Z,5.50
2023-05-07T16:41:01.872Z,5.53
2023-05-07T16:43:29.076Z,3.73
2023-05-07T16:45:55.957Z,4.73
2023-05-07T16:48:22.860Z,5.53
2023-05-07T16:50:49.747Z,5.70
2023-05-07T16:53:16.627Z,4.17
2023-05-07T16:55:43.398Z,4.27
2023-05-07T16:58:11.190Z,5.07
2023-05-07T17:00:49.997Z,5.80
2023-05-07T17:03:18.546Z,5.20
2023-05-07T17:05:45.581Z,5.17
2023-05-07T17:08:14.265Z,5.30
2023-05-07T17:10:41.520Z,6.30
2023-05-07T17:13:08.351Z,5.70
2023-05-07T17:15:35.195Z,7.17
2023-05-07T17:18:03.086Z,9.73
2023-05-07T17:20:30.042Z,5.73
2023-05-07T17:22:56.957Z,5.07
2023-05-07T17:25:23.748Z,5.87
2023-05-07T17:27:50.722Z,5.97
2023-05-07T17:30:18.171Z,5.03
2023-05-07T17:32:45.069Z,6.60
2023-05-07T17:35:11.976Z,6.23
2023-05-07T17:37:39.030Z,7.17
2023-05-07T17:40:06.381Z,6.37
2023-05-07T17:42:33.286Z,7.80
2023-05-07T17:45:00.143Z,6.77
2023-05-07T17:47:29.982Z,8.03
2023-05-07T17:49:57.284Z,6.50
2023-05-07T17:52:24.390Z,7.77
2023-05-07T17:54:51.207Z,6.43
2023-05-07T17:57:18.008Z,7.87
2023-05-07T17:59:45.915Z,7.00
2023-05-07T18:02:12.722Z,7.07
2023-05-07T18:04:39.525Z,6.60
2023-05-07T18:07:06.323Z,7.50
2023-05-07T18:09:33.232Z,7.47
2023-05-07T18:12:00.203Z,8.03
2023-05-07T18:14:26.961Z,7.10
2023-05-07T18:16:54.431Z,7.63
2023-05-07T18:19:22.499Z,7.60
2023-05-07T18:21:49.279Z,6.80
2023-05-07T18:24:16.538Z,6.90
2023-05-07T18:26:43.277Z,9.03
2023-05-07T18:29:10.143Z,8.97
2023-05-07T18:31:38.055Z,9.40
2023-05-07T18:34:06.606Z,8.90
2023-05-07T18:36:33.530Z,9.17
2023-05-07T18:39:01.535Z,11.17
2023-05-07T18:41:28.350Z,10.03
2023-05-07T18:43:55.188Z,12.47
2023-05-07T18:46:22.175Z,10.87
2023-05-07T18:48:49.413Z,12.70
2023-05-07T18:51:16.664Z,14.00
2023-05-07T18:53:43.896Z,11.13
2023-05-07T18:56:11.198Z,10.53
2023-05-07T18:58:40.010Z,10.57
2023-05-07T19:01:08.767Z,9.93
2023-05-07T19:03:36.097Z,11.23
2023-05-07T19:06:03.347Z,12.13
2023-05-07T19:08:30.253Z,10.90
2023-05-07T19:10:58.217Z,13.90
2023-05-07T19:13:27.615Z,12.20
2023-05-07T19:15:54.948Z,13.13
2023-05-07T19:18:21.832Z,11.93
2023-05-07T19:20:52.101Z,10.83
2023-05-07T19:23:21.358Z,11.67
2023-05-07T19:25:48.243Z,11.10
2023-05-07T19:28:15.035Z,10.77
2023-05-07T19:30:41.846Z,10.83
2023-05-07T19:33:08.738Z,10.77
2023-05-07T19:35:35.714Z,9.70
2023-05-07T19:38:02.746Z,10.10
2023-05-07T19:40:30.180Z,8.93
2023-05-07T19:42:57.013Z,9.23
2023-05-07T19:45:23.836Z,8.93
2023-05-07T19:47:51.273Z,10.77
2023-05-07T19:50:18.255Z,10.40
2023-05-07T19:52:44.947Z,11.17
2023-05-07T19:55:13.211Z,10.33
2023-05-07T19:57:40.172Z,9.63
2023-05-07T20:00:07.497Z,9.60
2023-05-07T20:02:39.893Z,9.60
2023-05-07T20:05:07.464Z,9.20
2023-05-07T20:07:34.216Z,9.83
2023-05-07T20:10:01.008Z,11.97
2023-05-07T20:12:27.720Z,11.70
2023-05-07T20:14:54.472Z,11.07
2023-05-07T20:17:21.312Z,9.07
2023-05-07T20:19:48.153Z,8.50
2023-05-07T20:22:14.838Z,9.20
2023-05-07T20:24:41.695Z,8.83
2023-05-07T20:27:09.307Z,9.67
2023-05-07T20:29:36.030Z,9.80
2023-05-07T20:32:03.294Z,8.63
2023-05-07T20:34:30.007Z,9.00
2023-05-07T20:36:57.147Z,12.37
2023-05-07T20:39:24.498Z,8.60
2023-05-07T20:41:51.222Z,9.37
2023-05-07T20:44:19.117Z,9.47
2023-05-07T20:46:46.119Z,8.90
2023-05-07T20:49:13.266Z,10.07
2023-05-07T20:51:40.118Z,8.33
2023-05-07T20:54:08.782Z,10.30
2023-05-07T20:56:35.652Z,8.10
2023-05-07T20:59:02.426Z,7.57
2023-05-07T21:01:29.805Z,8.87
2023-05-07T21:03:56.847Z,8.20
2023-05-07T21:06:23.645Z,10.37
2023-05-07T21:08:50.438Z,10.57
2023-05-07T21:11:18.179Z,7.73
2023-05-07T21:13:45.125Z,9.33
2023-05-07T21:16:11.940Z,8.00
2023-05-07T21:18:38.783Z,10.93
2023-05-07T21:21:08.845Z,12.50
2023-05-07T21:23:36.086Z,9.03
2023-05-07T21:26:02.965Z,11.10
2023-05-07T21:28:29.772Z,10.80
2023-05-07T21:30:56.488Z,9.80
2023-05-07T21:33:23.255Z,12.27
2023-05-07T21:35:49.987Z,11.20
2023-05-07T21:38:18.070Z,10.73
2023-05-07T21:40:45.187Z,11.60
2023-05-07T21:43:12.023Z,11.20
2023-05-07T21:45:39.452Z,12.03
2023-05-07T21:48:07.576Z,14.07
2023-05-07T21:50:34.274Z,12.50
2023-05-07T21:53:01.049Z,13.33
2023-05-07T21:55:27.856Z,13.97
2023-05-07T21:58:04.866Z,15.03
2023-05-07T22:00:33.155Z,15.03
2023-05-07T22:03:00.257Z,14.30
2023-05-07T22:05:27.210Z,16.37
2023-05-07T22:07:53.948Z,16.37
2023-05-07T22:10:23.123Z,14.53
2023-05-07T22:12:50.167Z,15.17
2023-05-07T22:15:17.803Z,16.10
2023-05-07T22:17:44.638Z,16.13
2023-05-07T22:20:12.035Z,18.20
2023-05-07T22:22:45.969Z,17.30
2023-05-07T22:25:12.910Z,18.30
2023-05-07T22:27:39.541Z,18.83
2023-05-07T22:30:06.669Z,19.23
2023-05-07T22:32:33.471Z,20.17
2023-05-07T22:35:00.221Z,21.80
2023-05-07T22:37:26.917Z,20.83
2023-05-07T22:39:54.551Z,27.23
2023-05-07T22:42:21.206Z,21.83
2023-05-07T22:44:47.966Z,21.33
2023-05-07T22:47:14.645Z,20.77
2023-05-07T22:49:41.317Z,24.93
2023-05-07T22:52:07.981Z,23.17
2023-05-07T22:54:34.678Z,21.97
2023-05-07T22:57:01.778Z,22.93
2023-05-07T22:59:28.558Z,22.93
2023-05-07T23:01:55.302Z,22.03
2023-05-07T23:04:22.604Z,23.80
2023-05-07T23:06:49.384Z,22.87
2023-05-07T23:09:16.173Z,23.60
2023-05-07T23:11:43.459Z,23.87
2023-05-07T23:14:10.258Z,25.80
2023-05-07T23:16:36.940Z,24.70
2023-05-07T23:19:03.681Z,23.53
2023-05-07T23:21:30.581Z,25.83
2023-05-07T23:23:57.399Z,23.60
2023-05-07T23:26:26.953Z,22.80
2023-05-07T23:28:53.724Z,23.90
2023-05-07T23:31:20.448Z,24.67
2023-05-07T23:33:47.258Z,23.93
2023-05-07T23:36:14.195Z,24.63
2023-05-07T23:38:40.896Z,24.20
2023-05-07T23:41:08.383Z,23.50
2023-05-07T23:43:35.047Z,23.20
2023-05-07T23:46:02.854Z,24.47
2023-05-07T23:48:29.588Z,23.90
2023-05-07T23:50:56.508Z,24.60
2023-05-07T23:53:23.261Z,26.10
2023-05-07T23:55:49.903Z,24.53
2023-05-07T23:58:16.623Z,25.43
